Time;durP1;ratioP1;P1;durP2;ratioP2;P2;SDS_P1;SDS_P2;PMS_P1;PMS_P2;Temp;Humidity;BMP_temperature;BMP_pressure;BME280_temperature;BME280_humidity;BME280_pressure;Samples;Min_cycle;Max_cycle;Signal;HPM_P1;HPM_P2
2020/12/11 00:00:34;;;;;;;41.57;26.40;;;;;;;;;;5026423;28;20161;-80
2020/12/11 00:03:00;;;;;;;42.97;27.90;;;;;;;;;;5035313;28;20168;-81
2020/12/11 00:05:25;;;;;;;45.40;30.53;;;;;;;;;;5034860;28;20203;-81
2020/12/11 00:07:50;;;;;;;56.50;40.30;;;;;;;;;;5035254;28;20172;-80
2020/12/11 00:10:15;;;;;;;49.40;29.50;;;;;;;;;;5035030;28;20179;-80
2020/12/11 00:12:41;;;;;;;46.83;31.33;;;;;;;;;;5035041;28;20175;-80
2020/12/11 00:15:07;;;;;;;44.77;27.10;;;;;;;;;;5035552;28;20354;-81
2020/12/11 00:17:32;;;;;;;54.53;35.23;;;;;;;;;;5035496;28;20200;-80
2020/12/11 00:19:58;;;;;;;50.27;34.37;;;;;;;;;;5034866;28;20223;-80
2020/12/11 00:22:23;;;;;;;47.20;30.17;;;;;;;;;;5035162;28;20173;-81
2020/12/11 00:24:49;;;;;;;62.77;40.93;;;;;;;;;;5034980;28;20651;-81
2020/12/11 00:27:14;;;;;;;46.80;33.87;;;;;;;;;;5035095;28;20176;-81
2020/12/11 00:29:40;;;;;;;39.20;26.70;;;;;;;;;;5034000;28;20283;-81
2020/12/11 00:32:06;;;;;;;36.87;24.63;;;;;;;;;;5035155;28;20184;-81
2020/12/11 00:34:31;;;;;;;57.93;32.77;;;;;;;;;;5035191;28;20507;-81
2020/12/11 00:36:57;;;;;;;42.27;27.63;;;;;;;;;;5034547;28;20295;-81
2020/12/11 00:39:23;;;;;;;42.27;26.00;;;;;;;;;;5034903;28;20204;-81
2020/12/11 00:41:48;;;;;;;49.10;28.97;;;;;;;;;;5034522;28;20259;-80
2020/12/11 00:44:14;;;;;;;49.90;27.93;;;;;;;;;;5034676;28;20176;-81
2020/12/11 00:46:39;;;;;;;40.83;24.83;;;;;;;;;;5034695;28;20179;-81
2020/12/11 00:49:04;;;;;;;52.23;31.03;;;;;;;;;;5034401;28;20168;-81
2020/12/11 00:51:30;;;;;;;43.47;27.20;;;;;;;;;;5034576;28;20173;-81
2020/12/11 00:53:55;;;;;;;36.83;23.97;;;;;;;;;;5034573;28;20173;-81
2020/12/11 00:56:22;;;;;;;43.23;27.63;;;;;;;;;;5034143;28;20646;-81
2020/12/11 00:58:47;;;;;;;45.07;28.23;;;;;;;;;;5034526;28;20255;-81
2020/12/11 01:01:13;;;;;;;49.57;29.47;;;;;;;;;;5034115;28;20172;-81
2020/12/11 01:03:38;;;;;;;52.20;31.60;;;;;;;;;;5034629;28;20180;-81
2020/12/11 01:06:03;;;;;;;56.57;32.07;;;;;;;;;;5034256;28;20200;-81
2020/12/11 01:08:28;;;;;;;74.20;48.10;;;;;;;;;;5034030;28;20175;-81
2020/12/11 01:10:54;;;;;;;34.23;25.00;;;;;;;;;;5034275;28;20583;-80
2020/12/11 01:13:19;;;;;;;40.33;24.63;;;;;;;;;;5033933;28;20252;-80
2020/12/11 01:15:44;;;;;;;37.07;25.90;;;;;;;;;;5033423;28;20187;-81
2020/12/11 01:18:10;;;;;;;34.57;23.83;;;;;;;;;;5032861;28;20527;-80
2020/12/11 01:20:35;;;;;;;41.80;28.13;;;;;;;;;;5032928;28;20234;-80
2020/12/11 01:23:00;;;;;;;42.23;27.70;;;;;;;;;;5033760;28;20180;-80
2020/12/11 01:25:25;;;;;;;38.67;26.40;;;;;;;;;;5033758;28;20196;-81
2020/12/11 01:27:51;;;;;;;41.00;27.50;;;;;;;;;;5034097;28;20218;-80
2020/12/11 01:30:16;;;;;;;41.13;22.67;;;;;;;;;;5033705;28;20202;-80
2020/12/11 01:32:41;;;;;;;37.33;22.77;;;;;;;;;;5033701;28;20251;-80
2020/12/11 01:35:07;;;;;;;34.57;22.80;;;;;;;;;;5033915;28;20183;-80
2020/12/11 01:37:32;;;;;;;37.30;25.53;;;;;;;;;;5033658;28;20164;-80
2020/12/11 01:39:58;;;;;;;34.13;22.20;;;;;;;;;;5034203;28;20258;-80
2020/12/11 01:42:23;;;;;;;39.57;25.27;;;;;;;;;;5033622;28;20196;-81
2020/12/11 01:44:49;;;;;;;32.10;22.00;;;;;;;;;;5034471;28;20197;-80
2020/12/11 01:47:15;;;;;;;32.70;20.03;;;;;;;;;;5033848;28;20173;-80
2020/12/11 01:49:40;;;;;;;35.90;21.67;;;;;;;;;;5034095;28;20176;-80
2020/12/11 01:52:06;;;;;;;36.67;22.80;;;;;;;;;;5033502;28;20195;-80
2020/12/11 01:54:31;;;;;;;35.07;23.13;;;;;;;;;;5033456;28;20646;-80
2020/12/11 01:57:03;;;;;;;52.57;32.70;;;;;;;;;;5033771;28;20172;-80
2020/12/11 01:59:35;;;;;;;34.80;22.97;;;;;;;;;;5034007;28;20239;-80
2020/12/11 02:02:02;;;;;;;37.83;23.13;;;;;;;;;;5034443;28;20168;-80
2020/12/11 02:04:28;;;;;;;30.37;21.23;;;;;;;;;;5033804;28;20165;-80
2020/12/11 02:06:53;;;;;;;35.77;24.07;;;;;;;;;;5034026;28;20172;-80
2020/12/11 02:09:22;;;;;;;35.87;22.27;;;;;;;;;;5033963;28;20215;-81
2020/12/11 02:11:51;;;;;;;34.60;22.37;;;;;;;;;;5034271;28;20172;-81
2020/12/11 02:14:16;;;;;;;39.87;23.67;;;;;;;;;;5033267;28;20172;-80
2020/12/11 02:16:42;;;;;;;32.77;22.47;;;;;;;;;;5033850;28;20165;-81
2020/12/11 02:19:07;;;;;;;36.93;22.50;;;;;;;;;;5033382;28;20639;-80
2020/12/11 02:21:32;;;;;;;36.80;22.43;;;;;;;;;;5033551;28;20627;-80
2020/12/11 02:23:58;;;;;;;43.93;27.77;;;;;;;;;;5034035;28;20196;-81
2020/12/11 02:26:24;;;;;;;35.83;21.97;;;;;;;;;;5033395;28;20342;-80
2020/12/11 02:28:49;;;;;;;44.03;24.17;;;;;;;;;;5033900;28;20704;-81
2020/12/11 02:31:15;;;;;;;38.60;24.07;;;;;;;;;;5033453;28;20256;-79
2020/12/11 02:33:40;;;;;;;37.23;24.97;;;;;;;;;;5033132;28;20176;-80
2020/12/11 02:36:05;;;;;;;35.43;23.73;;;;;;;;;;5033475;28;20623;-80
2020/12/11 02:38:30;;;;;;;31.67;19.77;;;;;;;;;;5033417;28;20222;-81
2020/12/11 02:40:56;;;;;;;46.13;28.33;;;;;;;;;;5033589;28;20204;-80
2020/12/11 02:43:22;;;;;;;42.43;26.30;;;;;;;;;;5033071;28;20512;-80
2020/12/11 02:45:48;;;;;;;41.20;24.53;;;;;;;;;;5033147;28;20750;-80
2020/12/11 02:48:14;;;;;;;33.63;21.37;;;;;;;;;;5033308;28;20698;-80
2020/12/11 02:50:39;;;;;;;30.67;20.17;;;;;;;;;;5033709;28;20195;-80
2020/12/11 02:53:05;;;;;;;36.33;22.47;;;;;;;;;;5034181;28;20196;-80
2020/12/11 02:55:30;;;;;;;33.30;20.93;;;;;;;;;;5037409;28;20695;-80
2020/12/11 02:57:56;;;;;;;39.13;25.33;;;;;;;;;;5036449;28;20169;-81
2020/12/11 03:00:21;;;;;;;42.27;24.70;;;;;;;;;;5037034;28;20508;-80
2020/12/11 03:02:46;;;;;;;42.57;23.27;;;;;;;;;;5036664;28;20238;-81
2020/12/11 03:05:12;;;;;;;45.33;26.27;;;;;;;;;;5036245;28;20291;-81
2020/12/11 03:07:37;;;;;;;35.97;20.90;;;;;;;;;;5036573;28;20207;-81
2020/12/11 03:10:03;;;;;;;35.60;21.67;;;;;;;;;;5036882;28;20228;-81
2020/12/11 03:12:28;;;;;;;37.87;21.20;;;;;;;;;;5036216;28;20175;-81
2020/12/11 03:14:53;;;;;;;34.37;21.20;;;;;;;;;;5036708;28;20306;-81
2020/12/11 03:17:19;;;;;;;48.27;27.00;;;;;;;;;;5036337;28;20194;-81
2020/12/11 03:19:44;;;;;;;36.93;22.90;;;;;;;;;;5035876;28;20176;-81
2020/12/11 03:22:09;;;;;;;42.97;22.73;;;;;;;;;;5036870;28;20179;-81
2020/12/11 03:24:34;;;;;;;35.70;20.07;;;;;;;;;;5036258;28;20168;-81
2020/12/11 03:27:00;;;;;;;41.10;22.73;;;;;;;;;;5036033;28;20207;-81
2020/12/11 03:29:25;;;;;;;37.10;21.60;;;;;;;;;;5036142;28;20619;-81
2020/12/11 03:31:50;;;;;;;39.43;22.90;;;;;;;;;;5036119;28;20173;-80
2020/12/11 03:34:16;;;;;;;43.33;24.43;;;;;;;;;;5035799;28;20173;-80
2020/12/11 03:36:41;;;;;;;49.30;24.53;;;;;;;;;;5035998;28;20177;-80
2020/12/11 03:39:06;;;;;;;42.10;24.20;;;;;;;;;;5035727;28;20242;-80
2020/12/11 03:41:31;;;;;;;42.17;23.50;;;;;;;;;;5035622;28;20615;-81
2020/12/11 03:43:57;;;;;;;41.30;24.00;;;;;;;;;;5036256;28;20237;-81
2020/12/11 03:46:22;;;;;;;41.90;24.27;;;;;;;;;;5035824;28;20678;-80
2020/12/11 03:48:48;;;;;;;39.63;23.97;;;;;;;;;;5036109;28;20242;-80
2020/12/11 03:51:17;;;;;;;39.73;23.07;;;;;;;;;;5036033;28;20169;-80
2020/12/11 03:53:43;;;;;;;44.10;23.87;;;;;;;;;;5036158;28;20615;-80
2020/12/11 03:56:08;;;;;;;40.40;23.80;;;;;;;;;;5035659;28;20169;-80
2020/12/11 03:58:34;;;;;;;38.20;21.83;;;;;;;;;;5035216;28;20220;-80
2020/12/11 04:00:59;;;;;;;43.13;22.80;;;;;;;;;;5035657;28;20184;-80
2020/12/11 04:03:24;;;;;;;42.93;24.00;;;;;;;;;;5036146;28;20251;-80
2020/12/11 04:05:49;;;;;;;46.27;22.77;;;;;;;;;;5034144;28;20207;-80
2020/12/11 04:08:15;;;;;;;40.43;22.33;;;;;;;;;;5035344;28;20242;-80
2020/12/11 04:10:40;;;;;;;41.00;24.07;;;;;;;;;;5035324;28;20509;-80
2020/12/11 04:13:05;;;;;;;39.67;22.50;;;;;;;;;;5034113;28;20176;-80
2020/12/11 04:15:30;;;;;;;44.10;23.77;;;;;;;;;;5035610;28;20200;-80
2020/12/11 04:17:56;;;;;;;44.13;24.90;;;;;;;;;;5035356;28;20172;-80
2020/12/11 04:20:21;;;;;;;44.00;24.13;;;;;;;;;;5035296;28;20207;-80
2020/12/11 04:22:46;;;;;;;45.50;25.07;;;;;;;;;;5035447;28;20726;-80
2020/12/11 04:25:12;;;;;;;44.83;25.77;;;;;;;;;;5035551;28;20196;-80
2020/12/11 04:27:37;;;;;;;40.50;23.43;;;;;;;;;;5035312;28;20196;-80
2020/12/11 04:30:02;;;;;;;47.40;23.60;;;;;;;;;;5034689;28;20198;-80
2020/12/11 04:32:28;;;;;;;42.77;22.97;;;;;;;;;;5034983;28;20173;-80
2020/12/11 04:34:53;;;;;;;46.97;25.77;;;;;;;;;;5035271;28;20650;-80
2020/12/11 04:37:18;;;;;;;42.77;24.83;;;;;;;;;;5035241;28;20168;-80
2020/12/11 04:39:44;;;;;;;46.17;27.60;;;;;;;;;;5034524;28;20173;-80
2020/12/11 04:42:10;;;;;;;71.90;38.90;;;;;;;;;;5034760;28;20172;-80
2020/12/11 04:44:36;;;;;;;71.37;37.23;;;;;;;;;;5034914;28;20173;-81
2020/12/11 04:47:07;;;;;;;47.80;27.40;;;;;;;;;;5034389;28;20175;-81
2020/12/11 04:49:34;;;;;;;56.13;27.73;;;;;;;;;;5035443;28;20600;-80
2020/12/11 04:52:03;;;;;;;53.13;29.43;;;;;;;;;;5034946;28;20514;-81
2020/12/11 04:54:34;;;;;;;51.33;28.97;;;;;;;;;;5034705;28;20214;-81
2020/12/11 04:56:59;;;;;;;47.27;24.40;;;;;;;;;;5034947;28;20168;-81
2020/12/11 04:59:25;;;;;;;39.67;24.03;;;;;;;;;;5034738;28;20555;-81
2020/12/11 05:01:53;;;;;;;82.87;45.43;;;;;;;;;;5034419;28;20287;-81
2020/12/11 05:04:18;;;;;;;44.10;25.33;;;;;;;;;;5034752;28;20627;-81
2020/12/11 05:06:43;;;;;;;59.27;35.13;;;;;;;;;;5034045;28;20239;-81
2020/12/11 05:09:13;;;;;;;71.50;41.50;;;;;;;;;;5034639;28;20173;-80
2020/12/11 05:11:39;;;;;;;62.57;38.47;;;;;;;;;;5034351;28;20638;-81
2020/12/11 05:14:05;;;;;;;67.73;38.60;;;;;;;;;;5034282;28;20196;-80
2020/12/11 05:16:30;;;;;;;49.47;28.83;;;;;;;;;;5034009;28;20176;-80
2020/12/11 05:19:02;;;;;;;59.13;34.63;;;;;;;;;;5034463;28;20169;-81
2020/12/11 05:21:28;;;;;;;48.17;26.60;;;;;;;;;;5034979;28;20279;-81
2020/12/11 05:24:01;;;;;;;54.00;26.23;;;;;;;;;;5034354;28;20636;-80
2020/12/11 05:26:27;;;;;;;70.87;39.30;;;;;;;;;;5034633;28;20208;-80
2020/12/11 05:28:52;;;;;;;76.77;40.77;;;;;;;;;;5033922;28;20235;-80
2020/12/11 05:31:18;;;;;;;54.10;27.73;;;;;;;;;;5034032;28;20603;-80
2020/12/11 05:34:01;;;;;;;57.17;29.80;;;;;;;;;;5034260;28;20246;-80
2020/12/11 05:36:27;;;;;;;50.13;25.53;;;;;;;;;;5034261;28;20267;-80
2020/12/11 05:38:52;;;;;;;64.73;35.90;;;;;;;;;;5033925;28;20598;-80
2020/12/11 05:41:33;;;;;;;49.87;26.93;;;;;;;;;;5034447;28;20191;-80
2020/12/11 05:43:59;;;;;;;78.03;40.47;;;;;;;;;;5034152;28;20176;-80
2020/12/11 05:46:33;;;;;;;66.10;35.93;;;;;;;;;;5034129;28;20208;-80
2020/12/11 05:48:59;;;;;;;68.50;38.17;;;;;;;;;;5034131;28;20218;-80
2020/12/11 05:51:33;;;;;;;80.60;41.23;;;;;;;;;;5033484;28;20527;-80
2020/12/11 05:54:02;;;;;;;58.77;31.97;;;;;;;;;;5033541;28;20165;-80
2020/12/11 05:56:28;;;;;;;67.67;37.13;;;;;;;;;;5033440;28;20180;-80
2020/12/11 05:58:54;;;;;;;96.80;50.67;;;;;;;;;;5033701;28;20798;-80
2020/12/11 06:01:20;;;;;;;76.73;37.23;;;;;;;;;;5033972;28;20173;-80
2020/12/11 06:03:46;;;;;;;63.27;32.57;;;;;;;;;;5034088;28;20180;-80
2020/12/11 06:06:14;;;;;;;48.03;23.40;;;;;;;;;;5033599;28;20689;-80
2020/12/11 06:08:41;;;;;;;59.70;32.80;;;;;;;;;;5033591;28;20207;-80
2020/12/11 06:11:08;;;;;;;81.03;44.40;;;;;;;;;;5034143;28;20180;-80
2020/12/11 06:13:41;;;;;;;86.17;45.83;;;;;;;;;;5033564;28;20169;-80
2020/12/11 06:16:08;;;;;;;88.93;43.67;;;;;;;;;;5033625;28;20583;-80
2020/12/11 06:18:37;;;;;;;57.67;31.17;;;;;;;;;;5033561;28;20682;-80
2020/12/11 06:21:02;;;;;;;44.67;23.83;;;;;;;;;;5033249;28;20230;-80
2020/12/11 06:23:29;;;;;;;52.83;25.77;;;;;;;;;;5033570;28;20176;-80
2020/12/11 06:25:58;;;;;;;53.63;27.20;;;;;;;;;;5034090;28;20196;-80
2020/12/11 06:28:39;;;;;;;60.77;29.40;;;;;;;;;;5034566;28;20176;-80
2020/12/11 06:31:05;;;;;;;135.53;62.97;;;;;;;;;;5037445;28;20176;-80
2020/12/11 06:33:31;;;;;;;73.90;32.17;;;;;;;;;;5037151;28;20201;-80
2020/12/11 06:35:57;;;;;;;125.83;66.20;;;;;;;;;;5037336;28;20212;-80
2020/12/11 06:38:42;;;;;;;61.43;31.20;;;;;;;;;;5037956;28;20173;-80
2020/12/11 06:41:07;;;;;;;68.80;31.03;;;;;;;;;;5036808;28;20173;-81
2020/12/11 06:43:37;;;;;;;72.83;37.47;;;;;;;;;;5036903;28;20176;-81
2020/12/11 06:46:13;;;;;;;70.70;32.27;;;;;;;;;;5036824;28;20247;-81
2020/12/11 06:48:57;;;;;;;126.57;52.03;;;;;;;;;;5037189;28;20182;-80
2020/12/11 06:51:22;;;;;;;110.93;49.07;;;;;;;;;;5036608;28;20165;-81
2020/12/11 06:53:48;;;;;;;84.43;38.63;;;;;;;;;;5037361;28;20694;-81
2020/12/11 06:56:33;;;;;;;69.10;33.93;;;;;;;;;;5036532;28;20173;-80
2020/12/11 06:59:17;;;;;;;64.70;29.30;;;;;;;;;;5036357;28;20231;-81
2020/12/11 07:01:42;;;;;;;64.57;32.03;;;;;;;;;;5036695;28;20591;-80
2020/12/11 07:04:07;;;;;;;77.00;35.43;;;;;;;;;;5036635;28;20204;-80
2020/12/11 07:06:32;;;;;;;70.00;31.63;;;;;;;;;;5036274;28;20550;-80
2020/12/11 07:09:01;;;;;;;70.33;32.90;;;;;;;;;;5036610;28;20179;-81
2020/12/11 07:11:27;;;;;;;63.03;30.00;;;;;;;;;;5036737;28;20496;-80
2020/12/11 07:13:53;;;;;;;78.70;39.80;;;;;;;;;;5036487;28;20172;-80
2020/12/11 07:16:18;;;;;;;63.93;31.47;;;;;;;;;;5036561;28;20168;-80
2020/12/11 07:18:44;;;;;;;69.57;30.40;;;;;;;;;;5036135;28;20175;-80
2020/12/11 07:21:10;;;;;;;61.63;31.90;;;;;;;;;;5036354;28;20244;-80
2020/12/11 07:23:36;;;;;;;95.30;44.40;;;;;;;;;;5036575;28;20243;-80
2020/12/11 07:26:03;;;;;;;69.13;33.23;;;;;;;;;;5036422;28;20239;-80
2020/12/11 07:28:28;;;;;;;81.13;40.83;;;;;;;;;;5036166;28;20169;-80
2020/12/11 07:30:53;;;;;;;65.33;34.13;;;;;;;;;;5036057;28;20583;-80
2020/12/11 07:33:18;;;;;;;54.70;29.40;;;;;;;;;;5035858;28;20623;-80
2020/12/11 07:35:45;;;;;;;56.00;26.47;;;;;;;;;;5036394;28;20165;-80
2020/12/11 07:38:10;;;;;;;85.77;38.03;;;;;;;;;;5036086;28;20173;-80
2020/12/11 07:40:35;;;;;;;78.83;37.40;;;;;;;;;;5035933;28;20175;-80
2020/12/11 07:43:03;;;;;;;66.37;33.77;;;;;;;;;;5035661;28;20260;-80
2020/12/11 07:45:31;;;;;;;64.50;30.27;;;;;;;;;;5036423;28;20193;-80
2020/12/11 07:47:56;;;;;;;64.43;29.50;;;;;;;;;;5035572;28;20197;-80
2020/12/11 07:50:25;;;;;;;51.20;25.33;;;;;;;;;;5036163;28;20230;-80
2020/12/11 07:52:52;;;;;;;56.67;27.47;;;;;;;;;;5035836;28;20168;-80
2020/12/11 07:55:17;;;;;;;56.57;30.33;;;;;;;;;;5035922;28;20165;-80
2020/12/11 07:57:53;;;;;;;60.20;31.00;;;;;;;;;;5034419;28;20620;-80
2020/12/11 08:00:18;;;;;;;50.63;25.33;;;;;;;;;;5034394;28;20196;-80
2020/12/11 08:02:43;;;;;;;67.23;37.90;;;;;;;;;;5035895;28;20176;-80
2020/12/11 08:05:09;;;;;;;52.03;27.80;;;;;;;;;;5035414;28;20673;-80
2020/12/11 08:07:35;;;;;;;51.13;28.73;;;;;;;;;;5035703;28;20267;-80
2020/12/11 08:10:10;;;;;;;53.60;27.10;;;;;;;;;;5035442;28;20555;-80
2020/12/11 08:12:36;;;;;;;70.43;37.10;;;;;;;;;;5035306;28;20657;-80
2020/12/11 08:15:01;;;;;;;87.33;46.83;;;;;;;;;;5035316;28;20176;-81
2020/12/11 08:17:28;;;;;;;86.43;47.67;;;;;;;;;;5035332;28;20562;-81
2020/12/11 08:19:58;;;;;;;70.13;36.13;;;;;;;;;;5035485;28;20165;-80
2020/12/11 08:22:29;;;;;;;73.80;39.43;;;;;;;;;;5035646;28;20215;-81
2020/12/11 08:24:54;;;;;;;71.07;37.57;;;;;;;;;;5035360;28;20193;-80
2020/12/11 08:27:24;;;;;;;82.20;41.50;;;;;;;;;;5033823;28;20685;-80
2020/12/11 08:30:03;;;;;;;59.93;33.70;;;;;;;;;;5034925;28;20593;-80
2020/12/11 08:32:28;;;;;;;60.40;31.77;;;;;;;;;;5028433;28;20176;-82
2020/12/11 08:34:54;;;;;;;115.10;52.37;;;;;;;;;;5034044;28;20204;-80
2020/12/11 08:37:19;;;;;;;53.83;28.87;;;;;;;;;;5034649;28;20172;-80
2020/12/11 08:39:44;;;;;;;85.10;41.70;;;;;;;;;;5034589;28;20225;-80
2020/12/11 08:45:20;;;;;;;107.83;52.63;;;;;;;;;;5034604;28;20180;-79
2020/12/11 08:48:07;;;;;;;232.50;107.40;;;;;;;;;;5034317;28;20184;-80
2020/12/11 08:50:46;;;;;;;190.80;79.57;;;;;;;;;;5034175;28;20168;-80
2020/12/11 08:53:14;;;;;;;171.93;75.50;;;;;;;;;;5031066;28;20195;-81
2020/12/11 08:55:40;;;;;;;182.57;84.57;;;;;;;;;;5034769;28;20646;-81
2020/12/11 08:58:06;;;;;;;99.50;49.43;;;;;;;;;;5034287;28;20169;-81
2020/12/11 09:00:32;;;;;;;138.60;60.97;;;;;;;;;;5033185;28;20247;-80
2020/12/11 09:02:57;;;;;;;107.17;48.50;;;;;;;;;;5033887;28;20172;-81
2020/12/11 09:05:24;;;;;;;95.43;46.77;;;;;;;;;;5032906;28;20204;-80
2020/12/11 09:07:50;;;;;;;80.63;39.70;;;;;;;;;;5034400;28;20283;-81
2020/12/11 09:10:17;;;;;;;79.93;37.30;;;;;;;;;;5034862;28;20242;-81
2020/12/11 09:12:42;;;;;;;95.63;45.87;;;;;;;;;;5034738;28;20195;-81
2020/12/11 09:15:08;;;;;;;75.90;36.87;;;;;;;;;;5033804;28;20603;-81
2020/12/11 09:17:34;;;;;;;72.83;33.80;;;;;;;;;;5025337;28;20172;-81
2020/12/11 09:19:59;;;;;;;66.07;33.97;;;;;;;;;;5027920;28;20177;-80
2020/12/11 09:22:24;;;;;;;78.77;39.63;;;;;;;;;;5025326;28;20177;-81
2020/12/11 09:24:50;;;;;;;93.37;44.33;;;;;;;;;;5016580;28;20271;-80
2020/12/11 09:27:15;;;;;;;75.57;36.57;;;;;;;;;;5014363;28;20161;-81
2020/12/11 09:29:44;;;;;;;114.30;50.77;;;;;;;;;;5014469;28;20185;-81
2020/12/11 09:32:19;;;;;;;92.43;43.50;;;;;;;;;;5014175;28;20532;-81
2020/12/11 09:34:44;;;;;;;72.17;35.07;;;;;;;;;;5014131;28;20155;-81
2020/12/11 09:37:09;;;;;;;57.60;30.87;;;;;;;;;;5014170;28;20176;-81
2020/12/11 09:39:35;;;;;;;52.97;28.93;;;;;;;;;;5013789;28;20639;-80
2020/12/11 09:42:26;;;;;;;78.07;41.03;;;;;;;;;;5013744;28;20169;-81
2020/12/11 09:45:03;;;;;;;53.17;27.87;;;;;;;;;;5014882;28;20185;-81
2020/12/11 09:47:47;;;;;;;63.17;31.50;;;;;;;;;;5017441;28;20575;-80
2020/12/11 09:50:27;;;;;;;55.57;27.53;;;;;;;;;;5025621;28;20263;-80
2020/12/11 09:53:46;;;;;;;54.30;28.33;;;;;;;;;;5023955;28;20191;-80
2020/12/11 09:55:46;;;;;;;44.63;23.60;;;;;;;;;;5013207;28;20195;-80
2020/12/11 09:58:11;;;;;;;51.43;27.07;;;;;;;;;;5014207;28;20634;-81
2020/12/11 10:00:40;;;;;;;48.97;26.37;;;;;;;;;;5013690;28;20158;-80
2020/12/11 10:03:08;;;;;;;50.80;27.03;;;;;;;;;;5015130;28;20173;-80
2020/12/11 10:05:34;;;;;;;45.33;24.70;;;;;;;;;;5018173;28;20224;-80
2020/12/11 10:07:59;;;;;;;43.90;24.07;;;;;;;;;;5020751;28;21055;-81
2020/12/11 10:10:24;;;;;;;51.53;27.93;;;;;;;;;;5037860;28;20168;-81
2020/12/11 10:12:50;;;;;;;60.80;33.50;;;;;;;;;;5037864;28;20169;-80
2020/12/11 10:15:20;;;;;;;49.07;26.20;;;;;;;;;;5037016;28;20709;-80
2020/12/11 10:17:45;;;;;;;38.87;21.30;;;;;;;;;;5035346;28;20176;-80
2020/12/11 10:20:17;;;;;;;50.57;27.17;;;;;;;;;;5037423;28;20176;-80
2020/12/11 10:22:42;;;;;;;46.27;24.20;;;;;;;;;;5037175;28;20173;-80
2020/12/11 10:25:07;;;;;;;41.67;22.43;;;;;;;;;;5036987;28;20218;-80
2020/12/11 10:27:33;;;;;;;53.07;24.97;;;;;;;;;;5037246;28;20179;-79
2020/12/11 10:29:59;;;;;;;41.57;23.60;;;;;;;;;;5037119;28;20542;-79
2020/12/11 10:32:25;;;;;;;45.57;26.40;;;;;;;;;;5036367;28;20268;-80
2020/12/11 10:34:50;;;;;;;58.60;32.57;;;;;;;;;;5035810;28;20538;-79
2020/12/11 10:37:15;;;;;;;53.87;30.60;;;;;;;;;;5036311;28;20635;-79
2020/12/11 10:39:41;;;;;;;64.90;36.07;;;;;;;;;;5037197;28;20169;-80
2020/12/11 10:42:06;;;;;;;261.50;88.90;;;;;;;;;;5037238;28;20176;-79
2020/12/11 10:44:32;;;;;;;104.40;51.87;;;;;;;;;;5036424;28;20259;-78
2020/12/11 10:46:58;;;;;;;50.07;29.00;;;;;;;;;;5036864;28;20244;-78
2020/12/11 10:49:23;;;;;;;45.70;25.63;;;;;;;;;;5037719;28;20195;-78
2020/12/11 10:51:49;;;;;;;42.67;24.53;;;;;;;;;;5036446;28;20169;-78
2020/12/11 10:54:17;;;;;;;63.87;34.10;;;;;;;;;;5037058;28;20180;-78
2020/12/11 10:56:42;;;;;;;69.13;37.20;;;;;;;;;;5036771;28;20690;-80
2020/12/11 10:59:07;;;;;;;52.63;28.10;;;;;;;;;;5036173;28;20221;-78
2020/12/11 11:01:32;;;;;;;74.70;40.43;;;;;;;;;;5036652;28;20176;-78
2020/12/11 11:03:58;;;;;;;52.97;29.83;;;;;;;;;;5036344;28;20591;-78
2020/12/11 11:06:28;;;;;;;45.93;26.00;;;;;;;;;;5036815;28;20535;-79
2020/12/11 11:22:04;;;;;;;72.77;36.93;;;;;;;;;;5036303;28;20184;-79
2020/12/11 11:27:18;;;;;;;145.80;64.47;;;;;;;;;;5035774;28;20646;-80
2020/12/11 11:29:43;;;;;;;98.77;45.23;;;;;;;;;;5036293;28;20196;-79
2020/12/11 11:32:08;;;;;;;67.17;31.50;;;;;;;;;;5036445;28;20515;-79
2020/12/11 11:34:33;;;;;;;70.37;33.83;;;;;;;;;;5035663;28;20179;-81
2020/12/11 11:36:59;;;;;;;69.10;33.47;;;;;;;;;;5036038;28;20180;-78
2020/12/11 11:39:24;;;;;;;95.37;46.57;;;;;;;;;;5034047;28;20180;-79
2020/12/11 11:41:53;;;;;;;96.27;50.17;;;;;;;;;;5035391;28;20172;-80
2020/12/11 11:46:50;;;;;;;71.27;32.10;;;;;;;;;;5033207;28;20228;-78
2020/12/11 11:49:21;;;;;;;63.23;29.83;;;;;;;;;;5027838;28;20624;-78
2020/12/11 11:52:09;;;;;;;61.70;28.70;;;;;;;;;;5024434;28;20520;-78
2020/12/11 11:54:35;;;;;;;80.93;36.97;;;;;;;;;;5026050;28;20158;-78
2020/12/11 11:57:00;;;;;;;117.60;52.87;;;;;;;;;;5025515;28;20276;-78
2020/12/11 11:59:26;;;;;;;69.63;33.80;;;;;;;;;;5019086;28;20325;-82
2020/12/11 12:01:54;;;;;;;64.70;32.60;;;;;;;;;;5027698;28;20187;-77
2020/12/11 12:04:20;;;;;;;67.30;33.00;;;;;;;;;;5034973;28;20697;-78
2020/12/11 12:06:45;;;;;;;65.03;31.70;;;;;;;;;;5030069;28;20216;-79
2020/12/11 12:09:11;;;;;;;60.97;34.40;;;;;;;;;;5033322;28;20183;-78
2020/12/11 12:11:36;;;;;;;63.97;33.47;;;;;;;;;;5035181;28;20186;-77
2020/12/11 12:14:01;;;;;;;108.90;54.53;;;;;;;;;;5035186;28;20175;-78
2020/12/11 12:16:27;;;;;;;142.27;63.50;;;;;;;;;;5035156;28;20194;-78
2020/12/11 12:18:55;;;;;;;72.03;38.77;;;;;;;;;;5035183;28;20169;-78
2020/12/11 12:22:05;;;;;;;94.07;46.30;;;;;;;;;;5033975;28;20192;-79
2020/12/11 12:29:31;;;;;;;38.93;20.40;;;;;;;;;;5033268;28;20562;-78
2020/12/11 12:32:01;;;;;;;44.53;25.13;;;;;;;;;;5034355;28;20169;-78
2020/12/11 12:44:54;;;;;;;50.43;26.93;;;;;;;;;;5033620;28;20212;-78
2020/12/11 12:47:19;;;;;;;46.53;26.03;;;;;;;;;;5033504;28;20611;-79
2020/12/11 12:49:44;;;;;;;57.13;32.03;;;;;;;;;;5027781;28;20184;-79
2020/12/11 12:52:09;;;;;;;76.83;39.60;;;;;;;;;;5030603;28;20173;-79
2020/12/11 12:54:35;;;;;;;75.67;39.37;;;;;;;;;;5033067;28;20171;-78
2020/12/11 12:57:03;;;;;;;52.17;29.67;;;;;;;;;;5032886;28;20211;-79
2020/12/11 12:59:53;;;;;;;51.03;27.03;;;;;;;;;;5033576;28;20224;-78
2020/12/11 13:07:27;;;;;;;51.70;28.37;;;;;;;;;;5014385;28;20195;-78
2020/12/11 13:09:53;;;;;;;48.60;28.63;;;;;;;;;;5026962;28;20670;-79
2020/12/11 13:12:18;;;;;;;42.50;22.63;;;;;;;;;;5032802;28;20255;-78
2020/12/11 13:14:43;;;;;;;40.00;21.77;;;;;;;;;;5032749;28;20175;-79
2020/12/11 13:17:09;;;;;;;38.30;23.13;;;;;;;;;;5032809;28;20180;-78
2020/12/11 13:19:35;;;;;;;40.60;21.57;;;;;;;;;;5032774;28;20238;-78
2020/12/11 13:27:26;;;;;;;36.87;19.73;;;;;;;;;;5032557;28;20183;-78
2020/12/11 13:29:52;;;;;;;44.67;25.80;;;;;;;;;;5033096;28;20196;-78
2020/12/11 13:32:19;;;;;;;46.53;26.27;;;;;;;;;;5033231;28;20168;-79
2020/12/11 13:34:44;;;;;;;46.40;26.27;;;;;;;;;;5032506;28;20183;-78
2020/12/11 13:37:10;;;;;;;47.37;26.60;;;;;;;;;;5032312;28;20258;-78
2020/12/11 13:39:35;;;;;;;46.43;25.23;;;;;;;;;;5032493;28;20283;-78
2020/12/11 13:42:00;;;;;;;39.87;23.93;;;;;;;;;;5032863;28;20173;-80
2020/12/11 13:44:26;;;;;;;37.47;22.80;;;;;;;;;;5032821;28;20527;-79
2020/12/11 13:46:51;;;;;;;49.70;26.60;;;;;;;;;;5030508;28;20293;-79
2020/12/11 13:49:18;;;;;;;44.20;26.23;;;;;;;;;;5032410;28;20215;-78
2020/12/11 13:51:46;;;;;;;42.23;24.40;;;;;;;;;;5032587;28;20179;-78
2020/12/11 13:54:12;;;;;;;68.27;33.83;;;;;;;;;;5032236;28;20234;-79
2020/12/11 13:56:37;;;;;;;56.50;29.10;;;;;;;;;;5032534;28;20231;-79
2020/12/11 13:59:03;;;;;;;37.63;21.80;;;;;;;;;;5032389;28;20748;-80
2020/12/11 14:01:28;;;;;;;39.20;22.60;;;;;;;;;;5032077;28;20172;-80
2020/12/11 14:03:53;;;;;;;46.70;25.47;;;;;;;;;;5032079;28;20183;-79
2020/12/11 14:06:26;;;;;;;48.33;27.93;;;;;;;;;;5032064;28;20205;-79
2020/12/11 14:08:52;;;;;;;53.20;29.80;;;;;;;;;;5032678;28;20169;-79
2020/12/11 14:11:21;;;;;;;61.23;34.77;;;;;;;;;;5032560;28;20173;-80
2020/12/11 14:13:47;;;;;;;46.87;27.63;;;;;;;;;;5032742;28;20927;-80
2020/12/11 14:16:16;;;;;;;68.80;39.03;;;;;;;;;;5033075;28;20176;-79
2020/12/11 14:18:46;;;;;;;51.47;27.47;;;;;;;;;;5030967;28;20180;-79
2020/12/11 14:21:49;;;;;;;60.97;34.53;;;;;;;;;;5033263;28;20200;-79
2020/12/11 14:24:03;;;;;;;63.47;33.17;;;;;;;;;;5033615;28;20196;-79
2020/12/11 14:26:28;;;;;;;62.10;30.53;;;;;;;;;;5032702;28;20560;-78
2020/12/11 14:28:53;;;;;;;55.97;28.77;;;;;;;;;;5032944;28;20624;-79
2020/12/11 14:31:19;;;;;;;59.53;32.37;;;;;;;;;;5032857;28;20256;-79
2020/12/11 14:33:44;;;;;;;49.17;29.50;;;;;;;;;;5033662;28;20246;-80
2020/12/11 14:36:09;;;;;;;47.47;29.03;;;;;;;;;;5033129;28;20570;-79
2020/12/11 14:41:00;;;;;;;46.57;27.27;;;;;;;;;;5033086;28;20184;-78
2020/12/11 14:43:31;;;;;;;53.37;29.50;;;;;;;;;;5033181;28;20232;-79
2020/12/11 14:46:00;;;;;;;49.80;26.60;;;;;;;;;;5033029;28;20559;-80
2020/12/11 14:48:25;;;;;;;50.40;28.03;;;;;;;;;;5032634;28;20535;-79
2020/12/11 14:50:50;;;;;;;51.43;25.90;;;;;;;;;;5036141;28;20176;-79
2020/12/11 14:53:16;;;;;;;52.43;27.73;;;;;;;;;;5036494;28;20647;-79
2020/12/11 14:55:41;;;;;;;59.87;30.33;;;;;;;;;;5036678;28;20184;-78
2020/12/11 14:58:07;;;;;;;60.00;30.40;;;;;;;;;;5034870;28;20242;-78
2020/12/11 15:00:33;;;;;;;56.17;29.00;;;;;;;;;;5036339;28;20244;-78
2020/12/11 15:02:58;;;;;;;54.47;28.33;;;;;;;;;;5035965;28;20215;-79
2020/12/11 15:05:24;;;;;;;46.87;26.00;;;;;;;;;;5036317;28;20655;-79